createdAt,value
2024-02-26T00:02:05.222Z,99154.44
2024-02-26T00:04:32.529Z,99153.59
2024-02-26T00:06:59.926Z,99155.31
2024-02-26T00:09:27.235Z,99153.59
2024-02-26T00:11:54.600Z,99157.91
2024-02-26T00:14:21.869Z,99161.34
2024-02-26T00:16:49.160Z,99155.38
2024-02-26T00:19:16.575Z,99163.09
2024-02-26T00:21:43.954Z,99154.53
2024-02-26T00:24:11.393Z,99158.81
2024-02-26T00:26:38.674Z,99148.56
2024-02-26T00:29:06.104Z,99151.97
2024-02-26T00:31:33.457Z,99146.84
2024-02-26T00:34:02.154Z,99146.00
2024-02-26T00:36:29.657Z,99142.53
2024-02-26T00:38:57.118Z,99146.88
2024-02-26T00:41:24.753Z,99144.28
2024-02-26T00:43:51.965Z,99143.44
2024-02-26T00:46:19.349Z,99142.59
2024-02-26T00:48:46.696Z,99144.31
2024-02-26T00:51:14.140Z,99146.03
2024-02-26T00:53:41.446Z,99140.88
2024-02-26T00:56:08.803Z,99131.44
2024-02-26T00:58:36.032Z,99128.03
2024-02-26T01:01:04.509Z,99126.28
2024-02-26T01:03:31.864Z,99122.00
2024-02-26T01:05:59.903Z,99120.25
2024-02-26T01:08:27.415Z,99123.69
2024-02-26T01:10:54.749Z,99127.09
2024-02-26T01:13:22.020Z,99119.38
2024-02-26T01:15:49.391Z,99114.22
2024-02-26T01:18:16.807Z,99120.19
2024-02-26T01:20:44.241Z,99119.31
2024-02-26T01:23:11.543Z,99110.69
2024-02-26T01:25:38.939Z,99108.91
2024-02-26T01:28:06.862Z,99109.72
2024-02-26T01:30:34.320Z,99113.13
2024-02-26T01:33:01.758Z,99112.25
2024-02-26T01:35:29.078Z,99113.88
2024-02-26T01:37:56.960Z,99125.81
2024-02-26T01:40:24.341Z,99122.38
2024-02-26T01:42:54.166Z,99132.59
2024-02-26T01:45:26.508Z,99130.88
2024-02-26T01:47:54.502Z,99126.53
2024-02-26T01:50:23.707Z,99117.91
2024-02-26T01:52:51.722Z,99123.88
2024-02-26T01:55:20.007Z,99126.44
2024-02-26T01:57:48.008Z,99129.84
2024-02-26T02:00:16.396Z,99132.41
2024-02-26T02:02:45.274Z,99132.41
2024-02-26T02:05:13.317Z,99131.50
2024-02-26T02:07:40.905Z,99135.69
2024-02-26T02:10:08.972Z,99136.50
2024-02-26T02:12:37.349Z,99140.72
2024-02-26T02:15:05.518Z,99129.53
2024-02-26T02:17:32.964Z,99132.91
2024-02-26T02:20:00.350Z,99134.59
2024-02-26T02:22:27.782Z,99132.00
2024-02-26T02:24:55.075Z,99133.69
2024-02-26T02:27:22.752Z,99129.38
2024-02-26T02:29:50.430Z,99135.31
2024-02-26T02:32:17.927Z,99132.72
2024-02-26T02:34:45.854Z,99133.59
2024-02-26T02:37:13.215Z,99133.56
2024-02-26T02:39:40.428Z,99119.84
2024-02-26T02:42:07.746Z,99127.50
2024-02-26T02:44:35.063Z,99129.16
2024-02-26T02:47:02.268Z,99140.28
2024-02-26T02:49:29.602Z,99142.84
2024-02-26T02:51:58.887Z,99144.56
2024-02-26T02:54:26.288Z,99136.84
2024-02-26T02:56:53.586Z,99140.25
2024-02-26T02:59:20.873Z,99139.38
2024-02-26T03:01:48.165Z,99132.50
2024-02-26T03:04:15.537Z,99129.06
2024-02-26T03:06:42.799Z,99134.16
2024-02-26T03:09:10.253Z,99137.47
2024-02-26T03:11:37.528Z,99129.72
2024-02-26T03:14:05.874Z,99139.13
2024-02-26T03:16:33.233Z,99127.94
2024-02-26T03:19:00.703Z,99128.72
2024-02-26T03:21:28.914Z,99128.66
2024-02-26T03:23:56.653Z,99132.06
2024-02-26T03:26:24.037Z,99138.00
2024-02-26T03:28:51.255Z,99138.84
2024-02-26T03:31:18.472Z,99137.06
2024-02-26T03:33:45.920Z,99148.13
2024-02-26T03:36:13.508Z,99142.97
2024-02-26T03:38:41.656Z,99140.34
2024-02-26T03:41:09.984Z,99139.50
2024-02-26T03:43:37.224Z,99138.63
2024-02-26T03:46:04.608Z,99133.50
2024-02-26T03:48:32.113Z,99135.19
2024-02-26T03:50:59.365Z,99132.66
2024-02-26T03:53:26.602Z,99134.38
2024-02-26T03:55:54.074Z,99136.13
2024-02-26T03:58:21.276Z,99141.28
2024-02-26T04:00:51.240Z,99139.47
2024-02-26T04:03:18.496Z,99135.94
2024-02-26T04:05:45.887Z,99135.94
2024-02-26T04:08:13.415Z,99135.84
2024-02-26T04:10:40.743Z,99136.63
2024-02-26T04:13:09.034Z,99130.56
2024-02-26T04:15:36.674Z,99139.97
2024-02-26T04:18:04.542Z,99139.94
2024-02-26T04:20:31.940Z,99139.91
2024-02-26T04:22:59.182Z,99149.28
2024-02-26T04:25:26.423Z,99144.91
2024-02-26T04:27:53.734Z,99147.41
2024-02-26T04:30:21.071Z,99138.00
2024-02-26T04:32:48.559Z,99141.38
2024-02-26T04:35:15.998Z,99143.13
2024-02-26T04:37:43.123Z,99139.63
2024-02-26T04:40:10.725Z,99135.28
2024-02-26T04:42:38.056Z,99136.13
2024-02-26T04:45:05.718Z,99145.53
2024-02-26T04:47:32.900Z,99153.22
2024-02-26T04:50:00.261Z,99145.44
2024-02-26T04:52:27.539Z,99151.34
2024-02-26T04:54:55.851Z,99153.91
2024-02-26T04:57:23.617Z,99148.69
2024-02-26T04:59:50.956Z,99162.34
2024-02-26T05:02:18.292Z,99151.19
2024-02-26T05:04:45.520Z,99160.56
2024-02-26T05:07:14.088Z,99169.09
2024-02-26T05:09:43.495Z,99176.75
2024-02-26T05:12:11.641Z,99179.34
2024-02-26T05:14:38.878Z,99175.00
2024-02-26T05:17:07.399Z,99181.81
2024-02-26T05:19:34.643Z,99191.19
2024-02-26T05:22:01.942Z,99190.28
2024-02-26T05:24:29.451Z,99196.25
2024-02-26T05:26:57.074Z,99200.50
2024-02-26T05:29:24.281Z,99201.34
2024-02-26T05:31:51.578Z,99203.97
2024-02-26T05:34:19.167Z,99205.72
2024-02-26T05:36:46.558Z,99207.50
2024-02-26T05:39:16.892Z,99214.44
2024-02-26T05:41:46.106Z,99215.38
2024-02-26T05:44:13.456Z,99220.53
2024-02-26T05:46:40.760Z,99223.06
2024-02-26T05:49:08.940Z,99224.78
2024-02-26T05:51:36.266Z,99227.34
2024-02-26T05:54:03.663Z,99224.78
2024-02-26T05:56:30.905Z,99232.50
2024-02-26T05:58:58.230Z,99235.09
2024-02-26T06:01:27.286Z,99241.94
2024-02-26T06:03:54.582Z,99245.34
2024-02-26T06:06:24.472Z,99240.25
2024-02-26T06:08:52.062Z,99247.06
2024-02-26T06:11:19.606Z,99244.53
2024-02-26T06:13:46.877Z,99244.63
2024-02-26T06:16:14.216Z,99250.69
2024-02-26T06:18:41.671Z,99249.91
2024-02-26T06:21:12.404Z,99248.25
2024-02-26T06:23:41.644Z,99250.81
2024-02-26T06:26:09.013Z,99254.31
2024-02-26T06:28:37.268Z,99262.94
2024-02-26T06:31:04.862Z,99256.97
2024-02-26T06:33:32.365Z,99261.31
2024-02-26T06:36:00.195Z,99264.81
2024-02-26T06:38:27.637Z,99268.31
2024-02-26T06:40:55.089Z,99274.41
2024-02-26T06:43:22.358Z,99273.66
2024-02-26T06:45:49.588Z,99266.97
2024-02-26T06:48:16.970Z,99270.47
2024-02-26T06:50:44.348Z,99270.63
2024-02-26T06:53:11.765Z,99271.56
2024-02-26T06:55:41.627Z,99272.56
2024-02-26T06:58:09.269Z,99276.09
2024-02-26T07:00:37.081Z,99278.78
2024-02-26T07:03:04.837Z,99273.78
2024-02-26T07:05:32.413Z,99276.44
2024-02-26T07:07:59.612Z,99281.72
2024-02-26T07:10:26.793Z,99279.22
2024-02-26T07:12:54.101Z,99276.72
2024-02-26T07:15:21.326Z,99282.78
2024-02-26T07:17:50.156Z,99289.75
2024-02-26T07:20:19.681Z,99285.59
2024-02-26T07:22:47.358Z,99284.00
2024-02-26T07:25:15.027Z,99294.41
2024-02-26T07:27:42.363Z,99285.09
2024-02-26T07:30:10.860Z,99288.59
2024-02-26T07:32:38.180Z,99294.66
2024-02-26T07:35:06.644Z,99303.34
2024-02-26T07:37:34.214Z,99297.38
2024-02-26T07:40:01.596Z,99297.44
2024-02-26T07:42:29.032Z,99293.22
2024-02-26T07:44:57.145Z,99293.28
2024-02-26T07:47:24.467Z,99297.66
2024-02-26T07:49:51.867Z,99303.78
2024-02-26T07:52:19.372Z,99307.25
2024-02-26T07:54:46.626Z,99298.72
2024-02-26T07:57:16.891Z,99303.97
2024-02-26T07:59:44.367Z,99305.75
2024-02-26T08:02:11.791Z,99308.34
2024-02-26T08:04:39.075Z,99311.84
2024-02-26T08:07:07.331Z,99309.31
2024-02-26T08:09:35.053Z,99309.34
2024-02-26T08:12:02.430Z,99318.88
2024-02-26T08:14:29.633Z,99315.47
2024-02-26T08:16:56.835Z,99318.06
2024-02-26T08:19:24.202Z,99321.53
2024-02-26T08:21:51.561Z,99324.13
2024-02-26T08:24:19.180Z,99331.00
2024-02-26T08:26:46.887Z,99330.16
2024-02-26T08:29:14.196Z,99333.63
2024-02-26T08:31:41.501Z,99331.03
2024-02-26T08:34:08.824Z,99330.19
2024-02-26T08:36:36.545Z,99334.50
2024-02-26T08:39:04.168Z,99332.78
2024-02-26T08:41:31.424Z,99331.94
2024-02-26T08:43:59.601Z,99337.94
2024-02-26T08:46:26.856Z,99343.09
2024-02-26T08:48:54.332Z,99339.63
2024-02-26T08:51:22.094Z,99343.06
2024-02-26T08:53:49.805Z,99345.63
2024-02-26T08:56:19.191Z,99348.16
2024-02-26T08:58:50.127Z,99346.44
2024-02-26T09:01:18.157Z,99348.97
2024-02-26T09:03:45.605Z,99355.84
2024-02-26T09:06:15.893Z,99348.03
2024-02-26T09:08:43.261Z,99362.66
2024-02-26T09:11:11.889Z,99358.25
2024-02-26T09:13:39.181Z,99355.59
2024-02-26T09:16:07.414Z,99359.84
2024-02-26T09:18:36.916Z,99354.59
2024-02-26T09:21:07.829Z,99347.63
2024-02-26T09:23:36.538Z,99357.03
2024-02-26T09:26:03.967Z,99360.41
2024-02-26T09:28:33.137Z,99365.50
2024-02-26T09:31:00.421Z,99363.63
2024-02-26T09:33:27.870Z,99361.84
2024-02-26T09:35:55.266Z,99365.19
2024-02-26T09:38:22.651Z,99364.22
2024-02-26T09:40:50.040Z,99369.38
2024-02-26T09:43:19.132Z,99368.41
2024-02-26T09:45:46.447Z,99361.38
2024-02-26T09:48:14.914Z,99365.59
2024-02-26T09:50:42.697Z,99365.56
2024-02-26T09:53:11.790Z,99370.66
2024-02-26T09:55:39.094Z,99372.31
2024-02-26T09:58:07.797Z,99366.22
2024-02-26T10:00:38.944Z,99372.22
2024-02-26T10:03:08.040Z,99370.34
2024-02-26T10:05:36.532Z,99365.06
2024-02-26T10:08:05.856Z,99370.28
2024-02-26T10:10:34.501Z,99378.06
2024-02-26T10:13:02.726Z,99376.31
2024-02-26T10:15:30.329Z,99388.25
2024-02-26T10:17:58.158Z,99384.66
2024-02-26T10:20:27.766Z,99384.44
2024-02-26T10:22:55.112Z,99374.88
2024-02-26T10:25:22.477Z,99373.84
2024-02-26T10:27:49.710Z,99367.81
2024-02-26T10:30:27.266Z,99377.31
2024-02-26T10:32:54.828Z,99376.31
2024-02-26T10:35:22.413Z,99377.00
2024-02-26T10:37:51.275Z,99369.19
2024-02-26T10:40:18.606Z,99366.47
2024-02-26T10:42:48.519Z,99365.53
2024-02-26T10:45:16.245Z,99363.00
2024-02-26T10:47:43.966Z,99363.13
2024-02-26T10:50:11.699Z,99364.75
2024-02-26T10:52:39.013Z,99368.28
2024-02-26T10:55:08.546Z,99370.81
2024-02-26T10:57:42.256Z,99369.81
2024-02-26T11:00:12.097Z,99374.84
2024-02-26T11:02:39.990Z,99368.66
2024-02-26T11:05:08.102Z,99371.16
2024-02-26T11:07:38.561Z,99363.25
2024-02-26T11:10:09.879Z,99375.34
2024-02-26T11:12:39.026Z,99370.81
2024-02-26T11:15:07.165Z,99366.31
2024-02-26T11:17:35.793Z,99365.41
2024-02-26T11:20:06.913Z,99372.25
2024-02-26T11:22:34.987Z,99370.47
2024-02-26T11:25:02.768Z,99368.72
2024-02-26T11:27:34.378Z,99372.94
2024-02-26T11:30:02.478Z,99362.56
2024-02-26T11:32:32.890Z,99365.78
2024-02-26T11:35:00.670Z,99377.94
2024-02-26T11:37:28.161Z,99367.50
2024-02-26T11:39:55.502Z,99371.81
2024-02-26T11:42:30.223Z,99373.44
2024-02-26T11:45:02.193Z,99385.47
2024-02-26T11:47:30.003Z,99374.94
2024-02-26T11:49:57.263Z,99377.50
2024-02-26T11:52:24.801Z,99373.09
2024-02-26T11:54:54.526Z,99369.59
2024-02-26T11:57:34.181Z,99374.00
2024-02-26T12:00:07.967Z,99385.16
2024-02-26T12:02:49.218Z,99388.63
2024-02-26T12:05:29.495Z,99379.78
2024-02-26T12:08:01.229Z,99376.94
2024-02-26T12:10:35.536Z,99375.19
2024-02-26T12:13:18.743Z,99380.44
2024-02-26T12:16:00.852Z,99379.72
2024-02-26T12:18:30.982Z,99362.31
2024-02-26T12:21:02.916Z,99370.88
2024-02-26T12:23:30.629Z,99379.53
2024-02-26T12:26:03.260Z,99362.25
2024-02-26T12:28:32.038Z,99380.41
2024-02-26T12:31:01.214Z,99365.66
2024-02-26T12:33:29.934Z,99372.69
2024-02-26T12:35:58.254Z,99377.22
2024-02-26T12:38:25.742Z,99377.22
2024-02-26T12:40:53.078Z,99378.88
2024-02-26T12:43:20.758Z,99385.81
2024-02-26T12:45:49.148Z,99385.00
2024-02-26T12:48:16.975Z,99392.81
2024-02-26T12:50:49.009Z,99403.44
2024-02-26T12:53:16.677Z,99392.34
2024-02-26T12:55:44.354Z,99401.06
2024-02-26T12:58:12.529Z,99404.66
2024-02-26T13:00:39.919Z,99414.25
2024-02-26T13:03:07.588Z,99416.81
2024-02-26T13:05:35.285Z,99416.09
2024-02-26T13:08:05.498Z,99423.13
2024-02-26T13:10:35.979Z,99419.78
2024-02-26T13:13:04.055Z,99419.00
2024-02-26T13:15:31.552Z,99416.50
2024-02-26T13:17:59.673Z,99410.56
2024-02-26T13:20:31.649Z,99415.94
2024-02-26T13:23:07.797Z,99407.41
2024-02-26T13:25:43.837Z,99414.31
2024-02-26T13:28:19.269Z,99418.66
2024-02-26T13:30:54.267Z,99427.31
2024-02-26T13:33:22.523Z,99426.56
2024-02-26T13:35:49.911Z,99429.25
2024-02-26T13:38:17.347Z,99430.19
2024-02-26T13:40:44.613Z,99440.00
2024-02-26T13:43:11.918Z,99435.81
2024-02-26T13:45:40.365Z,99441.28
2024-02-26T13:48:12.996Z,99433.41
2024-02-26T13:50:41.168Z,99454.34
2024-02-26T13:53:08.550Z,99451.06
2024-02-26T13:55:35.826Z,99448.56
2024-02-26T13:58:03.201Z,99452.19
2024-02-26T14:00:33.202Z,99461.56
2024-02-26T14:03:01.762Z,99445.97
2024-02-26T14:05:29.065Z,99441.72
2024-02-26T14:07:57.014Z,99458.25
2024-02-26T14:10:24.424Z,99448.81
2024-02-26T14:12:51.845Z,99441.06
2024-02-26T14:15:19.345Z,99442.81
2024-02-26T14:17:47.555Z,99463.59
2024-02-26T14:20:15.056Z,99470.63
2024-02-26T14:22:42.281Z,99462.16
2024-02-26T14:25:10.903Z,99473.44
2024-02-26T14:27:38.264Z,99482.13
2024-02-26T14:30:06.173Z,99467.44
2024-02-26T14:32:38.190Z,99465.72
2024-02-26T14:35:08.866Z,99476.16
2024-02-26T14:37:37.993Z,99454.81
2024-02-26T14:40:06.675Z,99475.50
2024-02-26T14:42:34.033Z,99476.38
2024-02-26T14:45:01.466Z,99489.47
2024-02-26T14:47:28.826Z,99486.88
2024-02-26T14:49:56.097Z,99491.25
2024-02-26T14:52:23.412Z,99472.44
2024-02-26T14:54:52.698Z,99476.84
2024-02-26T14:57:20.207Z,99495.03
2024-02-26T14:59:47.535Z,99495.94
2024-02-26T15:02:15.597Z,99483.88
2024-02-26T15:04:42.982Z,99493.41
2024-02-26T15:07:13.640Z,99487.44
2024-02-26T15:09:43.157Z,99502.16
2024-02-26T15:12:10.823Z,99506.53
2024-02-26T15:14:38.158Z,99513.44
2024-02-26T15:17:05.730Z,99512.59
2024-02-26T15:19:33.305Z,99524.66
2024-02-26T15:22:00.698Z,99515.22
2024-02-26T15:24:28.794Z,99509.25
2024-02-26T15:26:56.103Z,99498.91
2024-02-26T15:29:23.404Z,99534.31
2024-02-26T15:31:50.731Z,99531.72
2024-02-26T15:34:17.974Z,99534.31
2024-02-26T15:36:45.449Z,99550.72
2024-02-26T15:39:12.681Z,99549.00
2024-02-26T15:41:40.318Z,99536.94
2024-02-26T15:44:07.825Z,99546.44
2024-02-26T15:46:35.190Z,99549.03
2024-02-26T15:49:03.361Z,99542.09
2024-02-26T15:51:30.730Z,99555.88
2024-02-26T15:53:58.097Z,99567.97
2024-02-26T15:56:26.119Z,99577.44
2024-02-26T15:58:54.133Z,99580.03
2024-02-26T16:01:24.771Z,99569.69
2024-02-26T16:03:55.882Z,99582.59
2024-02-26T16:06:29.858Z,99585.16
2024-02-26T16:08:57.384Z,99596.38
2024-02-26T16:11:24.754Z,99586.88
2024-02-26T16:14:09.963Z,99594.63
2024-02-26T16:16:37.390Z,99585.16
2024-02-26T16:19:11.101Z,99604.94
2024-02-26T16:21:39.221Z,99607.50
2024-02-26T16:24:07.184Z,99593.72
2024-02-26T16:26:34.530Z,99615.22
2024-02-26T16:29:01.773Z,99610.06
2024-02-26T16:31:30.450Z,99622.94
2024-02-26T16:33:57.919Z,99605.75
2024-02-26T16:36:25.365Z,99599.75
2024-02-26T16:38:52.697Z,99598.84
2024-02-26T16:41:19.938Z,99602.31
2024-02-26T16:43:47.668Z,99604.00
2024-02-26T16:46:16.916Z,99617.72
2024-02-26T16:48:44.794Z,99617.72
2024-02-26T16:51:12.214Z,99631.50
2024-02-26T16:53:39.407Z,99637.50
2024-02-26T16:56:11.390Z,99630.59
2024-02-26T16:58:38.778Z,99646.09
2024-02-26T17:01:06.777Z,99643.50
2024-02-26T17:03:39.446Z,99629.75
2024-02-26T17:06:07.126Z,99627.13
2024-02-26T17:08:35.077Z,99644.34
2024-02-26T17:11:02.474Z,99636.59
2024-02-26T17:13:32.859Z,99649.44
2024-02-26T17:16:00.208Z,99651.16
2024-02-26T17:18:27.515Z,99645.97
2024-02-26T17:20:56.967Z,99664.03
2024-02-26T17:23:24.238Z,99654.53
2024-02-26T17:25:51.501Z,99658.84
2024-02-26T17:28:19.734Z,99665.72
2024-02-26T17:30:47.095Z,99676.03
2024-02-26T17:33:14.382Z,99676.94
2024-02-26T17:35:41.967Z,99679.53
2024-02-26T17:38:09.158Z,99672.69
2024-02-26T17:40:37.766Z,99666.59
2024-02-26T17:43:04.981Z,99666.63
2024-02-26T17:45:32.460Z,99674.41
2024-02-26T17:47:59.873Z,99679.56
2024-02-26T17:50:28.264Z,99679.59
2024-02-26T17:52:57.976Z,99678.81
2024-02-26T17:55:25.280Z,99675.38
2024-02-26T17:57:52.816Z,99674.53
2024-02-26T18:00:20.648Z,99675.38
2024-02-26T18:02:48.250Z,99682.25
2024-02-26T18:05:15.746Z,99682.25
2024-02-26T18:07:44.222Z,99683.09
2024-02-26T18:10:13.561Z,99687.41
2024-02-26T18:12:41.567Z,99686.53
2024-02-26T18:15:09.452Z,99687.44
2024-02-26T18:17:40.013Z,99685.72
2024-02-26T18:20:09.777Z,99694.28
2024-02-26T18:22:37.996Z,99683.97
2024-02-26T18:25:06.169Z,99689.16
2024-02-26T18:27:35.471Z,99682.31
2024-02-26T18:30:04.514Z,99685.75
2024-02-26T18:32:32.633Z,99690.03
2024-02-26T18:35:01.103Z,99688.31
2024-02-26T18:37:29.983Z,99696.91
2024-02-26T18:39:58.097Z,99691.75
2024-02-26T18:42:31.290Z,99686.56
2024-02-26T18:45:00.195Z,99689.16
2024-02-26T18:47:28.537Z,99691.75
2024-02-26T18:49:58.638Z,99689.16
2024-02-26T18:52:26.936Z,99702.91
2024-02-26T18:54:55.144Z,99703.75
2024-02-26T18:57:25.068Z,99700.31
2024-02-26T18:59:53.671Z,99700.34
2024-02-26T19:02:22.339Z,99690.00
2024-02-26T19:04:50.923Z,99715.81
2024-02-26T19:07:19.613Z,99718.34
2024-02-26T19:09:47.882Z,99712.34
2024-02-26T19:12:17.492Z,99724.38
2024-02-26T19:14:46.550Z,99712.31
2024-02-26T19:17:15.371Z,99724.38
2024-02-26T19:19:43.909Z,99724.31
2024-02-26T19:22:14.366Z,99726.94
2024-02-26T19:24:44.941Z,99728.66
2024-02-26T19:27:14.752Z,99714.03
2024-02-26T19:29:43.224Z,99729.53
2024-02-26T19:32:12.713Z,99731.28
2024-02-26T19:34:43.895Z,99730.44
2024-02-26T19:37:14.272Z,99713.19
2024-02-26T19:39:43.168Z,99739.06
2024-02-26T19:42:13.950Z,99733.97
2024-02-26T19:44:42.339Z,99731.31
2024-02-26T19:47:10.592Z,99737.38
2024-02-26T19:49:45.084Z,99739.13
2024-02-26T19:52:16.024Z,99739.94
2024-02-26T19:54:48.353Z,99735.66
2024-02-26T19:57:17.174Z,99733.09
2024-02-26T19:59:46.003Z,99740.81
2024-02-26T20:02:15.974Z,99738.22
2024-02-26T20:04:44.674Z,99736.50
2024-02-26T20:07:15.743Z,99746.88
2024-02-26T20:09:44.214Z,99739.94
2024-02-26T20:12:13.095Z,99747.69
2024-02-26T20:14:41.567Z,99750.34
2024-02-26T20:17:13.237Z,99746.03
2024-02-26T20:19:44.712Z,99749.53
2024-02-26T20:22:15.411Z,99741.75
2024-02-26T20:24:43.977Z,99734.84
2024-02-26T20:27:12.683Z,99753.78
2024-02-26T20:29:46.653Z,99748.59
2024-02-26T20:32:15.058Z,99739.06
2024-02-26T20:34:43.957Z,99736.50
2024-02-26T20:37:12.360Z,99755.44
2024-02-26T20:39:40.698Z,99744.25
2024-02-26T20:42:09.188Z,99743.44
2024-02-26T20:44:39.064Z,99742.59
2024-02-26T20:47:07.659Z,99728.84
2024-02-26T20:49:35.958Z,99724.56
2024-02-26T20:52:04.431Z,99733.19
2024-02-26T20:54:34.300Z,99739.19
2024-02-26T20:57:04.204Z,99740.06
2024-02-26T20:59:33.880Z,99748.69
2024-02-26T21:02:02.123Z,99754.72
2024-02-26T21:04:32.036Z,99748.69
2024-02-26T21:07:00.173Z,99764.19
2024-02-26T21:09:27.864Z,99753.00
2024-02-26T21:11:55.871Z,99762.47
2024-02-26T21:14:23.372Z,99767.66
2024-02-26T21:16:51.085Z,99765.94
2024-02-26T21:19:19.107Z,99759.97
2024-02-26T21:21:47.210Z,99770.31
2024-02-26T21:24:14.428Z,99766.91
2024-02-26T21:26:42.285Z,99757.41
2024-02-26T21:29:09.525Z,99770.38
2024-02-26T21:31:40.413Z,99785.00
2024-02-26T21:34:07.804Z,99773.84
2024-02-26T21:36:36.417Z,99771.28
2024-02-26T21:39:04.469Z,99766.16
2024-02-26T21:41:31.731Z,99764.47
2024-02-26T21:44:07.293Z,99767.03
2024-02-26T21:46:36.610Z,99766.19
2024-02-26T21:49:04.178Z,99766.19
2024-02-26T21:51:31.606Z,99761.91
2024-02-26T21:53:59.042Z,99770.53
2024-02-26T21:56:26.544Z,99765.34
2024-02-26T21:58:53.746Z,99767.94
2024-02-26T22:01:21.229Z,99780.88
2024-02-26T22:03:48.674Z,99766.25
2024-02-26T22:06:19.132Z,99780.91
2024-02-26T22:08:46.396Z,99773.09
2024-02-26T22:11:13.685Z,99772.28
2024-02-26T22:13:40.968Z,99753.28
2024-02-26T22:16:11.149Z,99780.06
2024-02-26T22:18:38.482Z,99779.19
2024-02-26T22:21:06.222Z,99773.16
2024-02-26T22:23:33.461Z,99771.47
2024-02-26T22:26:00.737Z,99774.91
2024-02-26T22:28:28.019Z,99779.19
2024-02-26T22:30:55.403Z,99779.19
2024-02-26T22:33:22.835Z,99763.66
2024-02-26T22:35:50.140Z,99773.16
2024-02-26T22:38:18.304Z,99773.16
2024-02-26T22:40:45.598Z,99749.84
2024-02-26T22:43:13.478Z,99770.56
2024-02-26T22:45:41.071Z,99760.22
2024-02-26T22:48:09.155Z,99771.38
2024-02-26T22:50:36.933Z,99749.84
2024-02-26T22:53:04.467Z,99761.91
2024-02-26T22:55:31.725Z,99757.56
2024-02-26T22:57:58.967Z,99748.06
2024-02-26T23:00:28.346Z,99754.09
2024-02-26T23:02:56.175Z,99752.34
2024-02-26T23:05:25.229Z,99741.09
2024-02-26T23:07:53.688Z,99749.78
2024-02-26T23:10:21.385Z,99754.06
2024-02-26T23:12:48.692Z,99749.75
2024-02-26T23:15:16.152Z,99736.81
2024-02-26T23:17:44.097Z,99735.91
2024-02-26T23:20:12.363Z,99731.63
2024-02-26T23:22:43.572Z,99716.09
2024-02-26T23:25:12.086Z,99744.56
2024-02-26T23:27:39.774Z,99740.28
2024-02-26T23:30:07.721Z,99737.66
2024-02-26T23:32:35.295Z,99756.63
2024-02-26T23:35:02.924Z,99749.69
2024-02-26T23:37:30.270Z,99748.03
2024-02-26T23:39:57.453Z,99747.19
2024-02-26T23:42:24.809Z,99761.78
2024-02-26T23:44:52.923Z,99760.88
2024-02-26T23:47:20.256Z,99774.66
2024-02-26T23:49:47.527Z,99775.56
2024-02-26T23:52:14.862Z,99781.53
2024-02-26T23:54:42.224Z,99780.69
2024-02-26T23:57:09.519Z,99783.28
2024-02-26T23:59:36.901Z,99789.31
